Time;durP1;ratioP1;P1;durP2;ratioP2;P2;SDS_P1;SDS_P2;PMS_P1;PMS_P2;Temp;Humidity;BMP_temperature;BMP_pressure;BME280_temperature;BME280_humidity;BME280_pressure;Samples;Min_cycle;Max_cycle;Signal;HPM_P1;HPM_P2
2022/05/17 00:00:34;;;;;;;;;;;;;;;17.83;42.49;100955.94;4809965;29;804;-61
2022/05/17 00:02:59;;;;;;;;;;;;;;;17.64;41.36;100959.25;4809726;29;773;-60
2022/05/17 00:05:27;;;;;;;;;;;;;;;17.50;40.67;100949.91;4809983;29;783;-61
2022/05/17 00:07:53;;;;;;;;;;;;;;;17.40;40.05;100945.25;4810004;29;916;-61
2022/05/17 00:10:19;;;;;;;;;;;;;;;17.35;39.64;100950.72;4809874;29;833;-61
2022/05/17 00:12:44;;;;;;;;;;;;;;;17.20;39.39;100943.31;4809217;29;863;-60
2022/05/17 00:15:10;;;;;;;;;;;;;;;17.07;39.21;100941.94;4808993;29;892;-61
2022/05/17 00:17:35;;;;;;;;;;;;;;;17.01;39.38;100946.59;4809565;29;1970;-60
2022/05/17 00:20:01;;;;;;;;;;;;;;;17.20;40.00;100948.81;4809707;29;896;-60
2022/05/17 00:22:27;;;;;;;;;;;;;;;17.33;41.38;100942.75;4809698;29;840;-60
2022/05/17 00:24:52;;;;;;;;;;;;;;;17.53;42.32;100941.09;4808590;29;796;-59
2022/05/17 00:27:17;;;;;;;;;;;;;;;17.63;43.12;100935.63;4808922;29;1040;-61
2022/05/17 00:29:43;;;;;;;;;;;;;;;17.68;43.97;100935.59;4808410;29;1268;-60
2022/05/17 00:32:09;;;;;;;;;;;;;;;17.79;44.07;100937.25;4809024;29;841;-60
2022/05/17 00:34:34;;;;;;;;;;;;;;;17.87;44.43;100940.53;4807962;29;867;-60
2022/05/17 00:37:00;;;;;;;;;;;;;;;17.87;44.65;100943.28;4809088;29;1911;-60
2022/05/17 00:39:25;;;;;;;;;;;;;;;17.90;44.68;100946.28;4809538;29;765;-61
2022/05/17 00:41:51;;;;;;;;;;;;;;;17.93;44.83;100936.69;4809804;29;811;-62
2022/05/17 00:47:02;;;;;;;;;;;;;;;18.01;44.84;100949.06;4809265;29;925;-61
2022/05/17 00:49:30;;;;;;;;;;;;;;;18.01;45.01;100947.13;4807901;29;826;-60
2022/05/17 00:51:57;;;;;;;;;;;;;;;18.09;44.86;100942.97;4809382;29;886;-60
2022/05/17 00:54:22;;;;;;;;;;;;;;;18.09;45.13;100943.81;4807848;29;1012;-60
2022/05/17 00:56:59;;;;;;;;;;;;;;;18.15;45.43;100952.06;4807698;29;920;-61
2022/05/17 00:59:24;;;;;;;;;;;;;;;18.21;45.45;100935.22;4803733;29;840;-61
2022/05/17 01:01:50;;;;;;;;;;;;;;;18.21;45.61;100937.16;4801611;29;836;-60
2022/05/17 01:04:19;;;;;;;;;;;;;;;18.24;45.44;100939.34;4808869;29;822;-59
2022/05/17 01:06:50;;;;;;;;;;;;;;;18.27;45.63;100934.13;4808990;29;852;-60
2022/05/17 01:09:16;;;;;;;;;;;;;;;18.20;45.37;100939.09;4807797;29;815;-60
2022/05/17 01:11:41;;;;;;;;;;;;;;;18.13;44.58;100933.88;4809286;29;774;-60
2022/05/17 01:16:51;;;;;;;;;;;;;;;17.74;42.39;100922.66;4805418;29;1915;-60
2022/05/17 01:19:16;;;;;;;;;;;;;;;17.60;41.53;100928.75;4810816;29;753;-60
2022/05/17 01:21:42;;;;;;;;;;;;;;;17.49;40.74;100934.50;4812731;29;969;-61
2022/05/17 01:24:07;;;;;;;;;;;;;;;17.40;40.27;100928.75;4812750;29;950;-61
2022/05/17 01:26:35;;;;;;;;;;;;;;;17.28;40.24;100934.53;4812572;29;853;-60
2022/05/17 01:29:01;;;;;;;;;;;;;;;17.21;39.79;100925.75;4812401;29;1136;-61
2022/05/17 01:31:27;;;;;;;;;;;;;;;17.15;39.37;100924.06;4812510;29;870;-61
2022/05/17 01:33:52;;;;;;;;;;;;;;;17.07;39.62;100923.53;4813097;29;775;-62
2022/05/17 01:36:21;;;;;;;;;;;;;;;16.98;39.52;100916.09;4812131;29;863;-61
2022/05/17 01:38:50;;;;;;;;;;;;;;;16.96;39.37;100908.13;4812393;29;1972;-60
2022/05/17 01:41:16;;;;;;;;;;;;;;;17.03;39.99;100911.44;4812510;29;837;-58
2022/05/17 01:43:41;;;;;;;;;;;;;;;17.07;40.83;100896.03;4812312;29;820;-59
2022/05/17 01:46:08;;;;;;;;;;;;;;;17.28;42.11;100909.78;4811458;29;898;-58
2022/05/17 01:48:34;;;;;;;;;;;;;;;17.51;43.16;100893.84;4811479;29;813;-59
2022/05/17 01:51:00;;;;;;;;;;;;;;;17.58;43.80;100894.38;4811753;29;939;-59
2022/05/17 01:53:25;;;;;;;;;;;;;;;17.69;44.57;100896.00;4812261;29;927;-60
2022/05/17 01:55:51;;;;;;;;;;;;;;;17.77;44.67;100886.38;4811701;29;901;-58
2022/05/17 01:58:16;;;;;;;;;;;;;;;17.82;44.91;100889.09;4812210;29;1907;-59
2022/05/17 02:00:44;;;;;;;;;;;;;;;17.90;45.13;100884.94;4811488;29;773;-59
2022/05/17 02:03:10;;;;;;;;;;;;;;;17.92;45.51;100888.25;4812100;29;948;-60
2022/05/17 02:05:36;;;;;;;;;;;;;;;17.98;45.58;100881.66;4811794;29;824;-58
2022/05/17 02:08:02;;;;;;;;;;;;;;;18.06;45.49;100885.75;4812124;29;860;-59
2022/05/17 02:10:28;;;;;;;;;;;;;;;18.08;45.54;100887.13;4812151;29;835;-59
2022/05/17 02:12:55;;;;;;;;;;;;;;;18.07;45.57;100877.19;4811713;29;962;-59
2022/05/17 02:15:20;;;;;;;;;;;;;;;18.17;45.85;100881.03;4810164;29;1472;-59
2022/05/17 02:17:46;;;;;;;;;;;;;;;18.20;45.65;100880.47;4811326;29;1911;-59
2022/05/17 02:20:12;;;;;;;;;;;;;;;18.19;45.83;100879.66;4811842;29;788;-59
2022/05/17 02:22:37;;;;;;;;;;;;;;;18.22;46.07;100870.81;4811551;29;818;-59
2022/05/17 02:25:03;;;;;;;;;;;;;;;18.26;45.89;100871.09;4811205;29;839;-59
2022/05/17 02:27:29;;;;;;;;;;;;;;;18.29;45.64;100873.28;4811249;29;1148;-59
2022/05/17 02:29:55;;;;;;;;;;;;;;;18.38;45.68;100868.78;4811419;29;879;-59
2022/05/17 02:32:20;;;;;;;;;;;;;;;18.30;45.86;100861.97;4806773;29;825;-59
2022/05/17 02:34:45;;;;;;;;;;;;;;;18.34;45.87;100865.00;4811282;29;825;-59
2022/05/17 02:37:11;;;;;;;;;;;;;;;18.20;44.73;100863.94;4811104;29;1907;-59
2022/05/17 02:39:36;;;;;;;;;;;;;;;18.06;43.65;100867.31;4810657;29;898;-59
2022/05/17 02:42:02;;;;;;;;;;;;;;;17.83;42.49;100874.22;4811486;29;761;-60
2022/05/17 02:44:28;;;;;;;;;;;;;;;17.64;41.48;100874.00;4805990;29;800;-59
2022/05/17 02:46:54;;;;;;;;;;;;;;;17.44;40.60;100878.44;4810862;29;885;-59
2022/05/17 02:49:19;;;;;;;;;;;;;;;17.40;39.96;100877.38;4811070;29;812;-59
2022/05/17 02:51:45;;;;;;;;;;;;;;;17.27;39.55;100872.41;4810769;29;792;-59
2022/05/17 02:54:10;;;;;;;;;;;;;;;17.09;39.52;100879.28;4811314;29;762;-59
2022/05/17 02:56:36;;;;;;;;;;;;;;;17.07;39.21;100882.31;4809676;29;868;-59
2022/05/17 02:59:03;;;;;;;;;;;;;;;16.98;39.40;100875.69;4810843;29;1907;-61
2022/05/17 03:01:29;;;;;;;;;;;;;;;17.16;40.03;100887.25;4805843;29;854;-60
2022/05/17 03:03:54;;;;;;;;;;;;;;;17.25;41.36;100869.09;4808704;29;787;-60
2022/05/17 03:06:20;;;;;;;;;;;;;;;17.44;42.51;100883.13;4811185;29;800;-59
2022/05/17 03:08:45;;;;;;;;;;;;;;;17.61;43.57;100880.06;4810575;29;888;-59
2022/05/17 03:11:11;;;;;;;;;;;;;;;17.72;44.17;100884.44;4811261;29;915;-59
2022/05/17 03:13:36;;;;;;;;;;;;;;;17.83;44.54;100878.91;4811012;29;910;-59
2022/05/17 03:16:02;;;;;;;;;;;;;;;17.87;45.13;100891.81;4810095;29;848;-59
2022/05/17 03:18:27;;;;;;;;;;;;;;;17.99;45.30;100883.28;4809201;29;1965;-59
2022/05/17 03:20:53;;;;;;;;;;;;;;;18.07;45.25;100885.44;4810849;29;828;-59
2022/05/17 03:23:18;;;;;;;;;;;;;;;18.07;45.59;100871.69;4810684;29;789;-60
2022/05/17 03:25:44;;;;;;;;;;;;;;;18.10;45.97;100884.06;4810743;29;773;-60
2022/05/17 03:28:10;;;;;;;;;;;;;;;18.19;45.77;100876.06;4810161;29;1058;-60
2022/05/17 03:30:35;;;;;;;;;;;;;;;18.26;45.81;100882.09;4809530;29;854;-60
2022/05/17 03:33:01;;;;;;;;;;;;;;;18.26;46.01;100879.34;4810170;29;753;-60
2022/05/17 03:35:27;;;;;;;;;;;;;;;18.20;46.02;100888.72;4809909;29;741;-59
2022/05/17 03:37:53;;;;;;;;;;;;;;;18.12;44.88;100898.38;4810040;29;1911;-60
2022/05/17 03:40:19;;;;;;;;;;;;;;;17.96;43.59;100889.34;4810056;29;856;-61
2022/05/17 03:42:44;;;;;;;;;;;;;;;17.74;42.47;100890.50;4808976;29;953;-60
2022/05/17 03:45:10;;;;;;;;;;;;;;;17.57;41.78;100895.47;4810227;29;738;-60
2022/05/17 03:47:35;;;;;;;;;;;;;;;17.51;41.35;100891.91;4810197;29;788;-63
2022/05/17 03:50:00;;;;;;;;;;;;;;;17.41;40.82;100889.97;4810030;29;814;-60
2022/05/17 03:52:26;;;;;;;;;;;;;;;17.28;40.33;100885.06;4810148;29;810;-59
2022/05/17 03:54:58;;;;;;;;;;;;;;;17.20;39.88;100896.59;4809397;29;845;-62
2022/05/17 03:57:24;;;;;;;;;;;;;;;17.14;39.75;100901.28;4810139;29;1907;-60
2022/05/17 03:59:51;;;;;;;;;;;;;;;17.01;39.68;100902.66;4809620;29;920;-60
2022/05/17 04:02:16;;;;;;;;;;;;;;;17.06;39.69;100904.56;4809908;29;934;-60
2022/05/17 04:04:42;;;;;;;;;;;;;;;17.20;40.25;100904.84;4810013;29;834;-62
2022/05/17 04:07:07;;;;;;;;;;;;;;;17.35;41.44;100915.00;4807605;29;1724;-62
2022/05/17 04:09:33;;;;;;;;;;;;;;;17.43;42.64;100904.28;4808724;29;1133;-63
2022/05/17 04:11:58;;;;;;;;;;;;;;;17.58;43.31;100899.88;4809681;29;1382;-62
2022/05/17 04:14:24;;;;;;;;;;;;;;;17.69;43.52;100896.00;4809268;29;1118;-63
2022/05/17 04:16:50;;;;;;;;;;;;;;;17.71;44.02;100904.81;4807521;29;870;-62
2022/05/17 04:19:15;;;;;;;;;;;;;;;17.76;44.37;100899.28;4808254;29;1986;-62
2022/05/17 04:21:41;;;;;;;;;;;;;;;17.82;44.47;100913.03;4809648;29;789;-63
2022/05/17 04:24:07;;;;;;;;;;;;;;;17.85;44.62;100907.81;4809411;29;821;-63
2022/05/17 04:26:32;;;;;;;;;;;;;;;17.97;44.87;100912.19;4809675;29;809;-63
2022/05/17 04:28:57;;;;;;;;;;;;;;;17.98;45.17;100913.81;4809111;29;1179;-62
2022/05/17 04:31:23;;;;;;;;;;;;;;;17.95;45.07;100913.31;4809069;29;878;-63
2022/05/17 04:33:48;;;;;;;;;;;;;;;18.01;45.24;100919.59;4809124;29;882;-61
2022/05/17 04:36:14;;;;;;;;;;;;;;;18.10;45.40;100917.09;4809958;29;787;-61
2022/05/17 04:38:39;;;;;;;;;;;;;;;18.11;45.40;100911.31;4809126;29;1924;-62
2022/05/17 04:41:05;;;;;;;;;;;;;;;18.14;45.63;100912.69;4809491;29;789;-60
2022/05/17 04:43:30;;;;;;;;;;;;;;;18.22;45.42;100914.84;4809386;29;915;-60
2022/05/17 04:45:56;;;;;;;;;;;;;;;18.23;45.56;100910.16;4808974;29;818;-60
2022/05/17 04:48:24;;;;;;;;;;;;;;;18.28;45.60;100918.41;4809548;29;856;-60
2022/05/17 04:50:52;;;;;;;;;;;;;;;18.24;45.51;100909.06;4803626;29;822;-60
2022/05/17 04:53:18;;;;;;;;;;;;;;;18.23;45.25;100916.50;4809261;29;780;-60
2022/05/17 04:55:44;;;;;;;;;;;;;;;18.26;44.71;100904.13;4809614;29;804;-60
2022/05/17 04:58:09;;;;;;;;;;;;;;;18.11;44.24;100918.75;4808873;29;1922;-60
2022/05/17 05:00:35;;;;;;;;;;;;;;;17.94;42.86;100908.06;4809309;29;965;-60
2022/05/17 05:03:00;;;;;;;;;;;;;;;17.80;41.74;100913.31;4809280;29;958;-60
2022/05/17 05:05:27;;;;;;;;;;;;;;;17.58;40.97;100897.13;4809579;29;770;-60
2022/05/17 05:07:52;;;;;;;;;;;;;;;17.55;40.37;100911.44;4809251;29;806;-61
2022/05/17 05:10:18;;;;;;;;;;;;;;;17.41;39.92;100919.41;4809143;29;842;-61
2022/05/17 05:12:43;;;;;;;;;;;;;;;17.33;39.61;100915.28;4809102;29;757;-62
2022/05/17 05:15:10;;;;;;;;;;;;;;;17.29;39.34;100908.69;4809059;29;885;-60
2022/05/17 05:17:35;;;;;;;;;;;;;;;17.21;39.28;100918.31;4809375;29;1959;-62
2022/05/17 05:20:01;;;;;;;;;;;;;;;17.18;39.82;100907.03;4809205;29;785;-62
2022/05/17 05:22:26;;;;;;;;;;;;;;;17.30;40.67;100899.34;4809266;29;764;-62
2022/05/17 05:24:52;;;;;;;;;;;;;;;17.53;41.95;100897.13;4804000;29;1141;-62
2022/05/17 05:27:18;;;;;;;;;;;;;;;17.68;42.73;100904.53;4806012;29;1105;-61
2022/05/17 05:29:43;;;;;;;;;;;;;;;17.72;43.18;100900.94;4808869;29;859;-62
2022/05/17 05:32:09;;;;;;;;;;;;;;;17.82;43.79;100902.03;4808587;29;1091;-65
2022/05/17 05:34:34;;;;;;;;;;;;;;;17.84;43.93;100894.31;4809316;29;937;-61
2022/05/17 05:37:00;;;;;;;;;;;;;;;17.90;44.13;100906.97;4809074;29;804;-59
2022/05/17 05:39:25;;;;;;;;;;;;;;;17.99;44.51;100905.28;4808780;29;2052;-59
2022/05/17 05:41:52;;;;;;;;;;;;;;;18.00;44.69;100906.94;4808608;29;844;-59
2022/05/17 05:44:18;;;;;;;;;;;;;;;18.04;44.84;100908.03;4808828;29;829;-60
2022/05/17 05:46:44;;;;;;;;;;;;;;;18.08;44.88;100897.31;4808420;29;880;-59
2022/05/17 05:49:10;;;;;;;;;;;;;;;18.06;44.95;100885.75;4808005;29;829;-61
2022/05/17 05:51:36;;;;;;;;;;;;;;;18.13;45.23;100886.25;4808709;29;715;-60
2022/05/17 05:54:02;;;;;;;;;;;;;;;18.17;45.18;100889.28;4807998;29;932;-60
2022/05/17 05:56:27;;;;;;;;;;;;;;;18.20;45.08;100892.31;4807927;29;1304;-59
2022/05/17 05:58:53;;;;;;;;;;;;;;;18.20;45.06;100894.22;4808550;29;1899;-59
2022/05/17 06:01:18;;;;;;;;;;;;;;;18.27;45.13;100889.22;4808420;29;861;-59
2022/05/17 06:03:44;;;;;;;;;;;;;;;18.29;44.94;100895.28;4808504;29;837;-59
2022/05/17 06:06:09;;;;;;;;;;;;;;;18.32;45.27;100894.72;4810603;29;1016;-61
2022/05/17 06:08:35;;;;;;;;;;;;;;;18.30;45.09;100894.19;4811809;29;932;-61
2022/05/17 06:11:04;;;;;;;;;;;;;;;18.20;44.46;100894.22;4812010;29;796;-61
2022/05/17 06:13:31;;;;;;;;;;;;;;;18.03;43.56;100891.81;4810618;29;877;-60
2022/05/17 06:15:56;;;;;;;;;;;;;;;17.90;42.66;100901.47;4811209;29;779;-59
2022/05/17 06:18:22;;;;;;;;;;;;;;;17.79;42.32;100907.00;4810191;29;1891;-59
2022/05/17 06:20:54;;;;;;;;;;;;;;;17.68;41.38;100913.59;4811499;29;912;-59
2022/05/17 06:23:20;;;;;;;;;;;;;;;17.52;40.47;100903.75;4811054;29;779;-59
2022/05/17 06:25:45;;;;;;;;;;;;;;;17.45;39.75;100901.25;4810714;29;872;-59
2022/05/17 06:28:11;;;;;;;;;;;;;;;17.38;39.45;100901.53;4810429;29;1272;-59
2022/05/17 06:30:36;;;;;;;;;;;;;;;17.21;39.32;100909.25;4811125;29;829;-60
2022/05/17 06:33:03;;;;;;;;;;;;;;;17.16;38.83;100909.25;4810977;29;1486;-60
2022/05/17 06:35:29;;;;;;;;;;;;;;;17.07;39.18;100901.53;4809913;29;1347;-59
2022/05/17 06:37:54;;;;;;;;;;;;;;;17.15;38.95;100907.59;4810567;29;1884;-60
2022/05/17 06:40:20;;;;;;;;;;;;;;;17.28;40.12;100901.56;4810642;29;929;-59
2022/05/17 06:42:45;;;;;;;;;;;;;;;17.44;41.34;100900.41;4810613;29;854;-60
2022/05/17 06:45:11;;;;;;;;;;;;;;;17.57;42.41;100900.97;4809355;29;992;-61
2022/05/17 06:47:37;;;;;;;;;;;;;;;17.69;42.90;100907.00;4811398;29;860;-61
2022/05/17 06:50:03;;;;;;;;;;;;;;;17.72;43.79;100892.69;4810996;29;976;-60
2022/05/17 06:52:29;;;;;;;;;;;;;;;17.79;44.27;100893.25;4810357;29;1001;-60
2022/05/17 06:54:55;;;;;;;;;;;;;;;17.87;44.31;100896.50;4810319;29;1071;-59
2022/05/17 06:57:21;;;;;;;;;;;;;;;17.92;44.64;100889.09;4811125;29;1970;-59
2022/05/17 06:59:46;;;;;;;;;;;;;;;17.99;44.59;100896.22;4810316;29;823;-60
2022/05/17 07:02:12;;;;;;;;;;;;;;;18.05;44.75;100893.19;4810131;29;961;-61
2022/05/17 07:04:37;;;;;;;;;;;;;;;18.10;44.86;100900.59;4810414;29;1033;-61
2022/05/17 07:07:03;;;;;;;;;;;;;;;18.19;45.08;100900.81;4806136;29;1035;-62
2022/05/17 07:09:29;;;;;;;;;;;;;;;18.20;44.99;100895.06;4810201;29;1279;-62
2022/05/17 07:14:39;;;;;;;;;;;;;;;18.35;46.20;100896.91;4810402;29;1110;-62
2022/05/17 07:17:15;;;;;;;;;;;;;;;18.33;46.00;100899.13;4808881;29;1285;-61
2022/05/17 07:19:41;;;;;;;;;;;;;;;18.24;44.91;100892.56;4809461;29;983;-60
2022/05/17 07:22:07;;;;;;;;;;;;;;;18.06;43.84;100888.50;4808525;29;1225;-61
2022/05/17 07:24:32;;;;;;;;;;;;;;;17.84;42.60;100889.66;4810242;29;1248;-60
2022/05/17 07:26:58;;;;;;;;;;;;;;;17.74;41.96;100889.66;4810877;29;737;-61
2022/05/17 07:29:24;;;;;;;;;;;;;;;17.59;40.99;100888.59;4806993;29;1143;-60
2022/05/17 07:31:50;;;;;;;;;;;;;;;17.45;40.65;100885.59;4806878;29;1272;-63
2022/05/17 07:34:15;;;;;;;;;;;;;;;17.44;39.83;100891.34;4809776;29;899;-63
2022/05/17 07:36:41;;;;;;;;;;;;;;;17.34;39.56;100885.88;4808973;29;757;-63
2022/05/17 07:39:07;;;;;;;;;;;;;;;17.27;39.56;100888.91;4808712;29;1911;-59
2022/05/17 07:41:32;;;;;;;;;;;;;;;17.20;39.25;100889.16;4809832;29;1212;-60
2022/05/17 07:43:58;;;;;;;;;;;;;;;17.12;39.01;100886.97;4809527;29;1177;-59
2022/05/17 07:46:23;;;;;;;;;;;;;;;17.06;39.39;100888.06;4808817;29;1181;-58
2022/05/17 07:48:49;;;;;;;;;;;;;;;17.04;38.94;100890.25;4806328;29;1153;-58
2022/05/17 07:51:14;;;;;;;;;;;;;;;17.06;39.35;100888.91;4808844;29;1263;-58
2022/05/17 07:53:40;;;;;;;;;;;;;;;17.20;40.40;100889.16;4807711;29;1338;-58
2022/05/17 07:56:07;;;;;;;;;;;;;;;17.34;41.68;100894.94;4809580;29;1188;-59
2022/05/17 07:58:32;;;;;;;;;;;;;;;17.44;42.30;100896.84;4806704;29;1977;-59
2022/05/17 08:00:58;;;;;;;;;;;;;;;17.60;43.09;100886.69;4809588;29;1110;-59
2022/05/17 08:03:23;;;;;;;;;;;;;;;17.64;43.69;100886.94;4808037;29;1058;-61
2022/05/17 08:05:50;;;;;;;;;;;;;;;17.70;44.01;100881.16;4808994;29;1225;-61
2022/05/17 08:08:15;;;;;;;;;;;;;;;17.82;44.27;100882.78;4809318;29;1102;-62
2022/05/17 08:10:41;;;;;;;;;;;;;;;17.89;44.24;100886.03;4809219;29;1402;-61
2022/05/17 08:13:07;;;;;;;;;;;;;;;17.92;44.65;100885.50;4809446;29;1288;-61
2022/05/17 08:15:33;;;;;;;;;;;;;;;18.00;44.96;100878.63;4809083;29;1185;-61
2022/05/17 08:17:59;;;;;;;;;;;;;;;18.01;45.11;100883.84;4808034;29;1920;-61
2022/05/17 08:20:25;;;;;;;;;;;;;;;18.07;44.93;100874.44;4807763;29;1209;-61
2022/05/17 08:22:50;;;;;;;;;;;;;;;18.07;45.15;100863.44;4808527;29;1240;-61
2022/05/17 08:28:01;;;;;;;;;;;;;;;18.20;45.43;100858.44;4808786;29;1185;-61
2022/05/17 08:30:27;;;;;;;;;;;;;;;18.27;45.30;100856.19;4809227;29;1580;-61
2022/05/17 08:35:42;;;;;;;;;;;;;;;18.15;44.52;100855.72;4808311;29;848;-62
2022/05/17 08:38:08;;;;;;;;;;;;;;;17.89;43.62;100856.63;4809649;29;1927;-62
2022/05/17 08:40:36;;;;;;;;;;;;;;;17.75;42.51;100856.41;4807821;29;1177;-61
2022/05/17 08:43:10;;;;;;;;;;;;;;;17.65;41.55;100844.59;4805821;29;1162;-62
2022/05/17 08:45:39;;;;;;;;;;;;;;;17.52;40.80;100849.56;4808129;29;838;-62
2022/05/17 08:48:05;;;;;;;;;;;;;;;17.47;40.38;100848.75;4805858;29;1218;-62
2022/05/17 08:50:32;;;;;;;;;;;;;;;17.33;39.90;100848.50;4809298;29;896;-62
2022/05/17 08:52:58;;;;;;;;;;;;;;;17.28;39.90;100841.09;4808418;29;943;-62
2022/05/17 08:55:28;;;;;;;;;;;;;;;17.21;39.71;100846.84;4807089;29;1174;-62
2022/05/17 08:57:55;;;;;;;;;;;;;;;17.21;39.59;100846.84;4806520;29;1900;-61
2022/05/17 09:00:23;;;;;;;;;;;;;;;17.13;39.38;100849.34;4806921;29;1257;-62
2022/05/17 09:02:50;;;;;;;;;;;;;;;17.08;39.52;100852.91;4808885;29;813;-62
2022/05/17 09:05:28;;;;;;;;;;;;;;;17.06;39.22;100860.59;4809250;29;809;-62
2022/05/17 09:08:00;;;;;;;;;;;;;;;17.12;40.50;100853.19;4807969;29;858;-62
2022/05/17 09:10:36;;;;;;;;;;;;;;;17.27;41.70;100853.19;4808824;29;999;-62
2022/05/17 09:13:24;;;;;;;;;;;;;;;17.50;42.31;100842.69;4808679;29;828;-62
2022/05/17 09:15:51;;;;;;;;;;;;;;;17.61;43.23;100844.31;4801350;29;1062;-62
2022/05/17 09:18:17;;;;;;;;;;;;;;;17.71;43.61;100841.56;4809092;29;1974;-62
2022/05/17 09:20:43;;;;;;;;;;;;;;;17.76;44.19;100843.44;4807089;29;1118;-63
2022/05/17 09:23:08;;;;;;;;;;;;;;;17.85;44.32;100832.69;4808661;29;1157;-61
2022/05/17 09:25:52;;;;;;;;;;;;;;;17.88;44.90;100834.88;4807853;29;1295;-59
2022/05/17 09:28:18;;;;;;;;;;;;;;;17.92;45.17;100838.75;4808472;29;1232;-59
2022/05/17 09:30:44;;;;;;;;;;;;;;;18.01;45.07;100837.06;4805860;29;1273;-59
2022/05/17 09:33:10;;;;;;;;;;;;;;;18.04;45.42;100831.00;4808270;29;1284;-58
2022/05/17 09:35:55;;;;;;;;;;;;;;;18.16;45.01;100838.09;4807718;29;1252;-60
2022/05/17 09:38:23;;;;;;;;;;;;;;;18.13;45.55;100834.81;4807799;29;1903;-60
2022/05/17 09:40:49;;;;;;;;;;;;;;;18.22;45.38;100825.97;4810747;29;1252;-60
2022/05/17 09:43:16;;;;;;;;;;;;;;;18.17;45.28;100824.03;4812034;29;1252;-62
2022/05/17 09:45:58;;;;;;;;;;;;;;;18.22;45.17;100818.53;4811564;29;1205;-60
2022/05/17 09:48:30;;;;;;;;;;;;;;;18.05;44.32;100818.88;4811726;29;1066;-62
2022/05/17 09:53:39;;;;;;;;;;;;;;;17.77;42.31;100815.66;4811490;29;1182;-59
2022/05/17 09:56:04;;;;;;;;;;;;;;;17.65;41.56;100817.91;4811369;29;1285;-60
2022/05/17 09:58:32;;;;;;;;;;;;;;;17.55;40.71;100812.44;4811554;29;1899;-59
2022/05/17 10:00:58;;;;;;;;;;;;;;;17.44;40.28;100806.94;4810769;29;1421;-63
2022/05/17 10:03:29;;;;;;;;;;;;;;;17.35;40.12;100807.81;4809590;29;995;-60
2022/05/17 10:05:57;;;;;;;;;;;;;;;17.26;39.73;100804.81;4811501;29;882;-61
2022/05/17 10:08:23;;;;;;;;;;;;;;;17.27;39.65;100798.22;4811438;29;1128;-61
2022/05/17 10:11:00;;;;;;;;;;;;;;;17.24;39.24;100801.53;4811858;29;931;-61
2022/05/17 10:13:44;;;;;;;;;;;;;;;17.12;39.57;100793.56;4811559;29;1133;-61
2022/05/17 10:16:11;;;;;;;;;;;;;;;17.35;41.94;100802.31;4810840;29;889;-61
2022/05/17 10:18:38;;;;;;;;;;;;;;;17.60;43.38;100795.94;4806878;29;1899;-61
2022/05/17 10:21:15;;;;;;;;;;;;;;;17.76;44.06;100792.00;4809318;29;861;-62
2022/05/17 10:24:10;;;;;;;;;;;;;;;17.99;44.74;100789.72;4810319;29;1106;-63
2022/05/17 10:26:40;;;;;;;;;;;;;;;18.11;45.17;100798.47;4790903;29;1438;-63
2022/05/17 10:29:11;;;;;;;;;;;;;;;18.24;45.19;100797.06;4809647;29;1412;-63
2022/05/17 10:31:50;;;;;;;;;;;;;;;18.32;45.23;100795.63;4806968;29;894;-64
2022/05/17 10:34:22;;;;;;;;;;;;;;;18.40;45.39;100799.72;4809682;29;758;-63
2022/05/17 10:36:49;;;;;;;;;;;;;;;18.34;44.93;100785.16;4811846;29;942;-64
2022/05/17 10:39:25;;;;;;;;;;;;;;;18.34;43.87;100782.41;4809988;29;1974;-64
2022/05/17 10:41:50;;;;;;;;;;;;;;;18.28;42.84;100786.28;4802176;29;1113;-64
2022/05/17 10:44:19;;;;;;;;;;;;;;;18.16;42.63;100777.53;4811321;29;830;-63
2022/05/17 10:46:48;;;;;;;;;;;;;;;18.10;42.19;100783.09;4810201;29;1009;-63
2022/05/17 10:49:34;;;;;;;;;;;;;;;18.07;41.69;100769.88;4810206;29;799;-60
2022/05/17 10:52:18;;;;;;;;;;;;;;;18.00;40.91;100763.06;4810422;29;1557;-62
2022/05/17 10:55:02;;;;;;;;;;;;;;;17.82;40.12;100759.00;4810626;29;1043;-62
2022/05/17 10:57:30;;;;;;;;;;;;;;;17.71;39.62;100771.97;4810694;29;1915;-61
2022/05/17 11:00:08;;;;;;;;;;;;;;;17.59;39.25;100764.84;4810477;29;1055;-63
2022/05/17 11:02:54;;;;;;;;;;;;;;;17.49;38.72;100750.31;4809635;29;974;-62
2022/05/17 11:05:28;;;;;;;;;;;;;;;17.40;38.52;100756.41;4810059;29;800;-63
2022/05/17 11:08:06;;;;;;;;;;;;;;;17.34;38.58;100746.53;4806247;29;831;-61
2022/05/17 11:10:44;;;;;;;;;;;;;;;17.28;38.32;100748.47;4805136;29;841;-62
2022/05/17 11:13:12;;;;;;;;;;;;;;;17.26;38.42;100747.94;4806024;29;825;-61
2022/05/17 11:15:39;;;;;;;;;;;;;;;17.15;38.52;100742.72;4810652;29;828;-63
2022/05/17 11:18:11;;;;;;;;;;;;;;;17.14;38.53;100741.06;4809691;29;1934;-61
2022/05/17 11:20:56;;;;;;;;;;;;;;;17.13;38.57;100747.69;4810402;29;832;-61
2022/05/17 11:23:33;;;;;;;;;;;;;;;17.14;39.18;100741.91;4810620;29;1399;-62
2022/05/17 11:26:05;;;;;;;;;;;;;;;17.34;40.41;100748.47;4810723;29;808;-61
2022/05/17 11:28:49;;;;;;;;;;;;;;;17.44;41.46;100738.22;4809269;29;1055;-61
2022/05/17 11:31:15;;;;;;;;;;;;;;;17.62;42.52;100725.78;4806694;29;918;-62
2022/05/17 11:33:41;;;;;;;;;;;;;;;17.72;42.87;100737.84;4810180;29;817;-62
2022/05/17 11:36:08;;;;;;;;;;;;;;;17.73;43.39;100737.56;4810233;29;832;-64
2022/05/17 11:38:36;;;;;;;;;;;;;;;17.88;43.47;100724.84;4810373;29;1992;-65
2022/05/17 11:41:04;;;;;;;;;;;;;;;17.88;43.90;100722.09;4810255;29;868;-62
2022/05/17 11:43:48;;;;;;;;;;;;;;;17.92;44.07;100723.19;4810220;29;972;-62
2022/05/17 11:46:28;;;;;;;;;;;;;;;17.97;44.38;100719.63;4809646;29;821;-64
2022/05/17 11:49:14;;;;;;;;;;;;;;;17.99;44.31;100720.94;4810329;29;872;-63
2022/05/17 11:51:59;;;;;;;;;;;;;;;18.06;44.27;100718.72;4796019;29;1614;-62
2022/05/17 11:54:44;;;;;;;;;;;;;;;18.10;44.26;100717.06;4809882;29;1193;-62
2022/05/17 11:57:10;;;;;;;;;;;;;;;18.03;43.69;100710.22;4810309;29;790;-63
2022/05/17 11:59:35;;;;;;;;;;;;;;;17.86;42.80;100707.81;4805349;29;1919;-61
2022/05/17 12:02:06;;;;;;;;;;;;;;;17.74;41.76;100708.97;4808175;29;869;-67
2022/05/17 12:04:36;;;;;;;;;;;;;;;17.57;41.01;100683.75;4810105;29;804;-65
2022/05/17 12:07:18;;;;;;;;;;;;;;;17.50;40.80;100683.25;4808946;29;1181;-63
2022/05/17 12:09:50;;;;;;;;;;;;;;;17.43;40.22;100686.28;4809788;29;959;-65
2022/05/17 12:12:25;;;;;;;;;;;;;;;17.42;40.15;100679.97;4809631;29;821;-64
2022/05/17 12:14:56;;;;;;;;;;;;;;;17.35;39.79;100679.47;4810020;29;914;-67
2022/05/17 12:17:34;;;;;;;;;;;;;;;17.29;39.79;100686.06;4805745;29;1919;-64
2022/05/17 12:20:10;;;;;;;;;;;;;;;17.26;39.90;100683.88;4808167;29;1047;-65
2022/05/17 12:22:41;;;;;;;;;;;;;;;17.24;39.63;100669.63;4800452;29;1094;-65
2022/05/17 12:25:08;;;;;;;;;;;;;;;17.19;39.87;100673.19;4809021;29;1110;-66
2022/05/17 12:27:34;;;;;;;;;;;;;;;17.09;39.85;100670.47;4808077;29;1078;-65
2022/05/17 12:32:49;;;;;;;;;;;;;;;17.04;39.48;100660.34;4808842;29;1205;-66
2022/05/17 12:35:16;;;;;;;;;;;;;;;17.01;39.80;100644.44;4808201;29;1224;-63
2022/05/17 12:37:43;;;;;;;;;;;;;;;17.15;40.46;100649.31;4806833;29;1903;-63
2022/05/17 12:43:07;;;;;;;;;;;;;;;17.44;42.32;100646.72;4809593;29;799;-64
2022/05/17 12:45:40;;;;;;;;;;;;;;;17.51;43.06;100654.66;4807965;29;964;-64
2022/05/17 12:48:13;;;;;;;;;;;;;;;17.66;43.28;100653.75;4809469;29;812;-66
2022/05/17 12:50:52;;;;;;;;;;;;;;;17.71;43.74;100645.47;4804066;29;1157;-67
2022/05/17 12:53:25;;;;;;;;;;;;;;;17.70;44.05;100636.41;4809200;29;1252;-66
2022/05/17 12:55:57;;;;;;;;;;;;;;;17.86;45.12;100642.59;4804840;29;1249;-65
2022/05/17 12:58:23;;;;;;;;;;;;;;;18.11;46.56;100638.06;4809165;29;2002;-66
2022/05/17 13:00:51;;;;;;;;;;;;;;;18.16;46.20;100637.19;4808000;29;1085;-64
2022/05/17 13:03:17;;;;;;;;;;;;;;;18.13;45.71;100631.16;4808863;29;1138;-65
2022/05/17 13:05:46;;;;;;;;;;;;;;;18.15;45.41;100635.56;4808945;29;821;-65
2022/05/17 13:08:12;;;;;;;;;;;;;;;18.16;45.36;100623.44;4808315;29;1224;-65
2022/05/17 13:10:38;;;;;;;;;;;;;;;18.24;45.33;100625.56;4806364;29;1284;-64
2022/05/17 13:13:14;;;;;;;;;;;;;;;18.24;45.19;100615.41;4808316;29;1209;-64
2022/05/17 13:15:39;;;;;;;;;;;;;;;18.18;44.76;100616.53;4808603;29;1174;-66
2022/05/17 13:18:07;;;;;;;;;;;;;;;18.04;44.25;100608.13;4810634;29;1907;-64